sensor_id;sensor_type;location;lat;lon;timestamp;P1;durP1;ratioP1;P2;durP2;ratioP2
12950;SDS011;6540;50.858;7.232;2022-08-05T00:01:23;6.17;;;4.90;;
12950;SDS011;6540;50.858;7.232;2022-08-05T00:03:49;6.07;;;4.47;;
12950;SDS011;6540;50.858;7.232;2022-08-05T00:06:15;7.43;;;4.67;;
12950;SDS011;6540;50.858;7.232;2022-08-05T00:08:41;7.77;;;4.93;;
12950;SDS011;6540;50.858;7.232;2022-08-05T00:11:08;8.13;;;4.90;;
12950;SDS011;6540;50.858;7.232;2022-08-05T00:13:36;6.83;;;4.73;;
12950;SDS011;6540;50.858;7.232;2022-08-05T00:16:03;7.67;;;4.90;;
12950;SDS011;6540;50.858;7.232;2022-08-05T00:18:29;9.10;;;5.07;;
12950;SDS011;6540;50.858;7.232;2022-08-05T00:20:55;6.50;;;4.10;;
12950;SDS011;6540;50.858;7.232;2022-08-05T00:23:21;10.27;;;5.07;;
12950;SDS011;6540;50.858;7.232;2022-08-05T00:25:47;5.67;;;4.47;;
12950;SDS011;6540;50.858;7.232;2022-08-05T00:28:13;5.10;;;4.10;;
12950;SDS011;6540;50.858;7.232;2022-08-05T00:30:39;5.20;;;4.50;;
12950;SDS011;6540;50.858;7.232;2022-08-05T00:33:05;7.67;;;4.90;;
12950;SDS011;6540;50.858;7.232;2022-08-05T00:35:30;6.73;;;4.77;;
12950;SDS011;6540;50.858;7.232;2022-08-05T00:37:56;6.93;;;4.77;;
12950;SDS011;6540;50.858;7.232;2022-08-05T00:40:22;7.37;;;4.63;;
12950;SDS011;6540;50.858;7.232;2022-08-05T00:42:49;5.83;;;4.70;;
12950;SDS011;6540;50.858;7.232;2022-08-05T00:45:14;7.20;;;4.80;;
12950;SDS011;6540;50.858;7.232;2022-08-05T00:47:39;7.70;;;4.97;;
12950;SDS011;6540;50.858;7.232;2022-08-05T00:50:05;5.63;;;4.67;;
12950;SDS011;6540;50.858;7.232;2022-08-05T00:52:31;5.77;;;5.03;;
12950;SDS011;6540;50.858;7.232;2022-08-05T00:54:57;7.10;;;4.50;;
12950;SDS011;6540;50.858;7.232;2022-08-05T00:57:22;5.63;;;4.43;;
12950;SDS011;6540;50.858;7.232;2022-08-05T00:59:48;6.37;;;4.47;;
12950;SDS011;6540;50.858;7.232;2022-08-05T01:02:13;5.87;;;4.60;;
12950;SDS011;6540;50.858;7.232;2022-08-05T01:04:38;5.53;;;4.33;;
12950;SDS011;6540;50.858;7.232;2022-08-05T01:07:04;9.33;;;4.70;;
12950;SDS011;6540;50.858;7.232;2022-08-05T01:09:30;5.10;;;4.57;;
12950;SDS011;6540;50.858;7.232;2022-08-05T01:11:58;9.30;;;5.07;;
12950;SDS011;6540;50.858;7.232;2022-08-05T01:17:05;5.03;;;4.63;;
12950;SDS011;6540;50.858;7.232;2022-08-05T01:30:40;6.37;;;5.33;;
12950;SDS011;6540;50.858;7.232;2022-08-05T01:33:12;5.80;;;4.67;;
12950;SDS011;6540;50.858;7.232;2022-08-05T01:35:40;6.10;;;4.87;;
12950;SDS011;6540;50.858;7.232;2022-08-05T01:38:09;6.10;;;4.30;;
12950;SDS011;6540;50.858;7.232;2022-08-05T01:40:37;6.13;;;5.10;;
12950;SDS011;6540;50.858;7.232;2022-08-05T01:43:04;4.87;;;4.37;;
12950;SDS011;6540;50.858;7.232;2022-08-05T01:45:30;5.60;;;4.53;;
12950;SDS011;6540;50.858;7.232;2022-08-05T01:47:57;6.67;;;4.93;;
12950;SDS011;6540;50.858;7.232;2022-08-05T01:50:25;5.57;;;4.53;;
12950;SDS011;6540;50.858;7.232;2022-08-05T01:52:53;6.73;;;4.10;;
12950;SDS011;6540;50.858;7.232;2022-08-05T01:55:22;5.97;;;4.90;;
12950;SDS011;6540;50.858;7.232;2022-08-05T01:57:52;4.77;;;4.13;;
12950;SDS011;6540;50.858;7.232;2022-08-05T02:00:19;5.57;;;4.20;;
12950;SDS011;6540;50.858;7.232;2022-08-05T02:02:47;5.30;;;4.80;;
12950;SDS011;6540;50.858;7.232;2022-08-05T02:05:18;7.43;;;4.87;;
12950;SDS011;6540;50.858;7.232;2022-08-05T02:07:46;7.60;;;4.23;;
12950;SDS011;6540;50.858;7.232;2022-08-05T02:10:12;8.47;;;4.57;;
12950;SDS011;6540;50.858;7.232;2022-08-05T02:15:34;6.57;;;4.10;;
12950;SDS011;6540;50.858;7.232;2022-08-05T02:18:05;6.23;;;4.77;;
12950;SDS011;6540;50.858;7.232;2022-08-05T02:20:48;7.43;;;4.73;;
12950;SDS011;6540;50.858;7.232;2022-08-05T02:23:22;7.07;;;5.47;;
12950;SDS011;6540;50.858;7.232;2022-08-05T02:25:53;5.67;;;4.97;;
12950;SDS011;6540;50.858;7.232;2022-08-05T02:28:25;7.30;;;5.10;;
12950;SDS011;6540;50.858;7.232;2022-08-05T02:30:57;6.33;;;5.17;;
12950;SDS011;6540;50.858;7.232;2022-08-05T02:33:26;5.03;;;4.50;;
12950;SDS011;6540;50.858;7.232;2022-08-05T02:35:53;5.43;;;4.60;;
12950;SDS011;6540;50.858;7.232;2022-08-05T02:38:21;5.80;;;5.00;;
12950;SDS011;6540;50.858;7.232;2022-08-05T02:40:48;6.70;;;4.80;;
12950;SDS011;6540;50.858;7.232;2022-08-05T02:43:14;8.37;;;5.00;;
12950;SDS011;6540;50.858;7.232;2022-08-05T02:45:42;6.03;;;4.63;;
12950;SDS011;6540;50.858;7.232;2022-08-05T02:48:10;4.17;;;3.73;;
12950;SDS011;6540;50.858;7.232;2022-08-05T02:50:37;5.37;;;4.03;;
12950;SDS011;6540;50.858;7.232;2022-08-05T02:53:06;4.27;;;3.87;;
12950;SDS011;6540;50.858;7.232;2022-08-05T02:55:31;5.80;;;3.60;;
12950;SDS011;6540;50.858;7.232;2022-08-05T02:57:58;6.57;;;3.87;;
12950;SDS011;6540;50.858;7.232;2022-08-05T03:00:25;5.00;;;3.60;;
12950;SDS011;6540;50.858;7.232;2022-08-05T03:02:52;3.73;;;3.30;;
12950;SDS011;6540;50.858;7.232;2022-08-05T03:05:21;4.17;;;3.77;;
12950;SDS011;6540;50.858;7.232;2022-08-05T03:07:46;4.37;;;3.40;;
12950;SDS011;6540;50.858;7.232;2022-08-05T03:10:16;8.07;;;4.33;;
12950;SDS011;6540;50.858;7.232;2022-08-05T03:12:41;5.47;;;4.10;;
12950;SDS011;6540;50.858;7.232;2022-08-05T03:15:07;11.90;;;4.80;;
12950;SDS011;6540;50.858;7.232;2022-08-05T03:17:34;9.83;;;3.90;;
12950;SDS011;6540;50.858;7.232;2022-08-05T03:19:59;7.60;;;4.27;;
12950;SDS011;6540;50.858;7.232;2022-08-05T03:22:25;4.60;;;4.20;;
12950;SDS011;6540;50.858;7.232;2022-08-05T03:24:51;9.00;;;4.40;;
12950;SDS011;6540;50.858;7.232;2022-08-05T03:27:17;5.93;;;4.10;;
12950;SDS011;6540;50.858;7.232;2022-08-05T03:29:44;4.60;;;3.97;;
12950;SDS011;6540;50.858;7.232;2022-08-05T03:32:10;8.63;;;4.47;;
12950;SDS011;6540;50.858;7.232;2022-08-05T03:34:36;7.87;;;4.90;;
12950;SDS011;6540;50.858;7.232;2022-08-05T03:37:02;7.10;;;4.70;;
12950;SDS011;6540;50.858;7.232;2022-08-05T03:39:29;6.53;;;4.13;;
12950;SDS011;6540;50.858;7.232;2022-08-05T03:41:55;6.87;;;4.50;;
12950;SDS011;6540;50.858;7.232;2022-08-05T03:44:21;5.97;;;4.43;;
12950;SDS011;6540;50.858;7.232;2022-08-05T03:46:46;11.40;;;5.60;;
12950;SDS011;6540;50.858;7.232;2022-08-05T03:49:12;7.33;;;5.07;;
12950;SDS011;6540;50.858;7.232;2022-08-05T03:51:38;7.83;;;5.60;;
12950;SDS011;6540;50.858;7.232;2022-08-05T03:54:09;5.57;;;5.07;;
12950;SDS011;6540;50.858;7.232;2022-08-05T03:56:42;7.47;;;5.50;;
12950;SDS011;6540;50.858;7.232;2022-08-05T03:59:09;9.07;;;6.40;;
12950;SDS011;6540;50.858;7.232;2022-08-05T04:01:43;9.03;;;6.17;;
12950;SDS011;6540;50.858;7.232;2022-08-05T04:04:13;8.17;;;6.67;;
12950;SDS011;6540;50.858;7.232;2022-08-05T04:06:39;8.97;;;6.63;;
12950;SDS011;6540;50.858;7.232;2022-08-05T04:09:05;9.10;;;6.07;;
12950;SDS011;6540;50.858;7.232;2022-08-05T04:11:32;10.97;;;7.33;;
12950;SDS011;6540;50.858;7.232;2022-08-05T04:13:59;9.87;;;7.03;;
12950;SDS011;6540;50.858;7.232;2022-08-05T04:16:24;8.63;;;7.63;;
12950;SDS011;6540;50.858;7.232;2022-08-05T04:18:50;8.60;;;7.27;;
12950;SDS011;6540;50.858;7.232;2022-08-05T04:21:16;9.33;;;7.47;;
12950;SDS011;6540;50.858;7.232;2022-08-05T04:23:41;11.00;;;7.63;;
12950;SDS011;6540;50.858;7.232;2022-08-05T04:26:08;9.77;;;6.90;;
12950;SDS011;6540;50.858;7.232;2022-08-05T04:28:33;10.27;;;7.97;;
12950;SDS011;6540;50.858;7.232;2022-08-05T04:30:59;8.83;;;7.73;;
12950;SDS011;6540;50.858;7.232;2022-08-05T04:33:25;10.97;;;8.83;;
12950;SDS011;6540;50.858;7.232;2022-08-05T04:35:51;12.93;;;9.83;;
12950;SDS011;6540;50.858;7.232;2022-08-05T04:38:16;12.33;;;9.13;;
12950;SDS011;6540;50.858;7.232;2022-08-05T04:40:42;10.50;;;8.23;;
12950;SDS011;6540;50.858;7.232;2022-08-05T04:43:07;9.93;;;8.73;;
12950;SDS011;6540;50.858;7.232;2022-08-05T04:45:32;10.57;;;8.50;;
12950;SDS011;6540;50.858;7.232;2022-08-05T04:48:05;11.17;;;9.20;;
12950;SDS011;6540;50.858;7.232;2022-08-05T04:50:51;11.80;;;9.43;;
12950;SDS011;6540;50.858;7.232;2022-08-05T04:53:16;12.40;;;9.83;;
12950;SDS011;6540;50.858;7.232;2022-08-05T04:55:42;11.03;;;8.70;;
12950;SDS011;6540;50.858;7.232;2022-08-05T04:58:09;10.10;;;9.10;;
12950;SDS011;6540;50.858;7.232;2022-08-05T05:00:37;11.50;;;9.00;;
12950;SDS011;6540;50.858;7.232;2022-08-05T05:03:04;14.70;;;9.70;;
12950;SDS011;6540;50.858;7.232;2022-08-05T05:05:30;14.43;;;9.83;;
12950;SDS011;6540;50.858;7.232;2022-08-05T05:08:04;11.87;;;10.20;;
12950;SDS011;6540;50.858;7.232;2022-08-05T05:10:40;12.53;;;10.50;;
12950;SDS011;6540;50.858;7.232;2022-08-05T05:13:11;14.20;;;10.90;;
12950;SDS011;6540;50.858;7.232;2022-08-05T05:15:38;14.80;;;11.30;;
12950;SDS011;6540;50.858;7.232;2022-08-05T05:18:06;13.40;;;11.77;;
12950;SDS011;6540;50.858;7.232;2022-08-05T05:20:33;13.40;;;12.00;;
12950;SDS011;6540;50.858;7.232;2022-08-05T05:22:59;14.40;;;12.43;;
12950;SDS011;6540;50.858;7.232;2022-08-05T05:25:26;17.33;;;12.70;;
12950;SDS011;6540;50.858;7.232;2022-08-05T05:27:52;19.37;;;14.47;;
12950;SDS011;6540;50.858;7.232;2022-08-05T05:30:17;20.30;;;14.83;;
12950;SDS011;6540;50.858;7.232;2022-08-05T05:32:43;19.83;;;15.63;;
12950;SDS011;6540;50.858;7.232;2022-08-05T05:35:09;18.03;;;14.87;;
12950;SDS011;6540;50.858;7.232;2022-08-05T05:37:48;19.70;;;15.27;;
12950;SDS011;6540;50.858;7.232;2022-08-05T05:40:19;19.23;;;15.13;;
12950;SDS011;6540;50.858;7.232;2022-08-05T05:42:46;20.27;;;14.30;;
12950;SDS011;6540;50.858;7.232;2022-08-05T05:45:13;22.50;;;15.93;;
12950;SDS011;6540;50.858;7.232;2022-08-05T05:47:39;20.67;;;15.10;;
12950;SDS011;6540;50.858;7.232;2022-08-05T05:50:05;22.30;;;17.07;;
12950;SDS011;6540;50.858;7.232;2022-08-05T05:52:38;23.17;;;17.63;;
12950;SDS011;6540;50.858;7.232;2022-08-05T05:55:05;19.73;;;16.13;;
12950;SDS011;6540;50.858;7.232;2022-08-05T05:57:35;25.60;;;16.07;;
12950;SDS011;6540;50.858;7.232;2022-08-05T06:00:05;22.80;;;17.93;;
12950;SDS011;6540;50.858;7.232;2022-08-05T06:02:33;22.77;;;17.03;;
12950;SDS011;6540;50.858;7.232;2022-08-05T06:04:59;25.90;;;18.70;;
12950;SDS011;6540;50.858;7.232;2022-08-05T06:07:24;26.73;;;19.40;;
12950;SDS011;6540;50.858;7.232;2022-08-05T06:09:50;22.57;;;18.87;;
12950;SDS011;6540;50.858;7.232;2022-08-05T06:12:15;27.90;;;20.40;;
12950;SDS011;6540;50.858;7.232;2022-08-05T06:14:40;26.67;;;20.47;;
12950;SDS011;6540;50.858;7.232;2022-08-05T06:17:08;30.53;;;22.30;;
12950;SDS011;6540;50.858;7.232;2022-08-05T06:19:34;29.77;;;23.37;;
12950;SDS011;6540;50.858;7.232;2022-08-05T06:21:59;29.90;;;23.30;;
12950;SDS011;6540;50.858;7.232;2022-08-05T06:24:24;30.37;;;23.20;;
12950;SDS011;6540;50.858;7.232;2022-08-05T06:26:50;30.17;;;24.43;;
12950;SDS011;6540;50.858;7.232;2022-08-05T06:29:15;33.03;;;23.13;;
12950;SDS011;6540;50.858;7.232;2022-08-05T06:31:40;36.03;;;25.23;;
12950;SDS011;6540;50.858;7.232;2022-08-05T06:34:06;34.57;;;28.30;;
12950;SDS011;6540;50.858;7.232;2022-08-05T06:36:31;31.87;;;26.27;;
12950;SDS011;6540;50.858;7.232;2022-08-05T06:38:56;41.37;;;31.27;;
12950;SDS011;6540;50.858;7.232;2022-08-05T06:41:22;41.60;;;30.37;;
12950;SDS011;6540;50.858;7.232;2022-08-05T06:43:47;43.17;;;30.47;;
12950;SDS011;6540;50.858;7.232;2022-08-05T06:46:13;41.43;;;31.07;;
12950;SDS011;6540;50.858;7.232;2022-08-05T06:48:39;38.17;;;32.30;;
12950;SDS011;6540;50.858;7.232;2022-08-05T06:51:04;43.13;;;33.20;;
12950;SDS011;6540;50.858;7.232;2022-08-05T06:53:30;44.40;;;33.37;;
12950;SDS011;6540;50.858;7.232;2022-08-05T06:55:56;41.60;;;29.73;;
12950;SDS011;6540;50.858;7.232;2022-08-05T06:58:25;38.63;;;29.43;;
12950;SDS011;6540;50.858;7.232;2022-08-05T07:00:51;41.60;;;28.87;;
12950;SDS011;6540;50.858;7.232;2022-08-05T07:03:17;41.33;;;29.97;;
12950;SDS011;6540;50.858;7.232;2022-08-05T07:05:43;40.80;;;28.87;;
12950;SDS011;6540;50.858;7.232;2022-08-05T07:08:09;37.93;;;29.57;;
12950;SDS011;6540;50.858;7.232;2022-08-05T07:10:34;43.33;;;31.77;;
12950;SDS011;6540;50.858;7.232;2022-08-05T07:13:00;43.33;;;33.17;;
12950;SDS011;6540;50.858;7.232;2022-08-05T07:15:43;46.63;;;34.83;;
12950;SDS011;6540;50.858;7.232;2022-08-05T07:18:27;42.23;;;33.33;;
12950;SDS011;6540;50.858;7.232;2022-08-05T07:20:53;48.67;;;37.47;;
12950;SDS011;6540;50.858;7.232;2022-08-05T07:23:18;48.07;;;37.03;;
12950;SDS011;6540;50.858;7.232;2022-08-05T07:25:44;48.47;;;37.10;;
12950;SDS011;6540;50.858;7.232;2022-08-05T07:28:09;49.13;;;36.13;;
12950;SDS011;6540;50.858;7.232;2022-08-05T07:30:35;44.60;;;33.93;;
12950;SDS011;6540;50.858;7.232;2022-08-05T07:33:02;46.27;;;33.20;;
12950;SDS011;6540;50.858;7.232;2022-08-05T07:35:29;49.27;;;34.03;;
12950;SDS011;6540;50.858;7.232;2022-08-05T07:37:55;47.10;;;33.47;;
12950;SDS011;6540;50.858;7.232;2022-08-05T07:40:21;49.37;;;33.43;;
12950;SDS011;6540;50.858;7.232;2022-08-05T07:42:47;44.87;;;32.80;;
12950;SDS011;6540;50.858;7.232;2022-08-05T07:45:13;49.50;;;33.23;;
12950;SDS011;6540;50.858;7.232;2022-08-05T07:47:39;41.60;;;30.77;;
12950;SDS011;6540;50.858;7.232;2022-08-05T07:50:05;43.93;;;31.50;;
12950;SDS011;6540;50.858;7.232;2022-08-05T07:52:31;43.53;;;30.63;;
12950;SDS011;6540;50.858;7.232;2022-08-05T07:54:56;46.70;;;31.10;;
12950;SDS011;6540;50.858;7.232;2022-08-05T07:57:22;44.77;;;31.53;;
12950;SDS011;6540;50.858;7.232;2022-08-05T07:59:47;47.00;;;34.90;;
12950;SDS011;6540;50.858;7.232;2022-08-05T08:02:13;48.93;;;33.50;;
12950;SDS011;6540;50.858;7.232;2022-08-05T08:04:38;48.00;;;32.90;;
12950;SDS011;6540;50.858;7.232;2022-08-05T08:07:04;51.23;;;36.10;;
12950;SDS011;6540;50.858;7.232;2022-08-05T08:09:30;48.53;;;33.83;;
12950;SDS011;6540;50.858;7.232;2022-08-05T08:11:55;46.27;;;33.50;;
12950;SDS011;6540;50.858;7.232;2022-08-05T08:14:20;48.00;;;32.80;;
12950;SDS011;6540;50.858;7.232;2022-08-05T08:16:46;46.00;;;34.20;;
12950;SDS011;6540;50.858;7.232;2022-08-05T08:19:11;49.93;;;34.57;;
12950;SDS011;6540;50.858;7.232;2022-08-05T08:21:36;47.30;;;34.10;;
12950;SDS011;6540;50.858;7.232;2022-08-05T08:24:02;46.87;;;33.53;;
12950;SDS011;6540;50.858;7.232;2022-08-05T08:26:27;44.23;;;32.37;;
12950;SDS011;6540;50.858;7.232;2022-08-05T08:28:53;49.43;;;33.10;;
12950;SDS011;6540;50.858;7.232;2022-08-05T08:31:18;48.17;;;32.73;;
12950;SDS011;6540;50.858;7.232;2022-08-05T08:33:44;43.13;;;32.33;;
12950;SDS011;6540;50.858;7.232;2022-08-05T08:36:10;44.40;;;32.57;;
12950;SDS011;6540;50.858;7.232;2022-08-05T08:38:35;54.07;;;33.80;;
12950;SDS011;6540;50.858;7.232;2022-08-05T08:41:03;51.77;;;33.53;;
12950;SDS011;6540;50.858;7.232;2022-08-05T08:43:32;51.80;;;34.27;;
12950;SDS011;6540;50.858;7.232;2022-08-05T08:45:59;50.37;;;32.63;;
12950;SDS011;6540;50.858;7.232;2022-08-05T08:48:28;51.33;;;34.13;;
12950;SDS011;6540;50.858;7.232;2022-08-05T08:50:55;60.37;;;35.73;;
12950;SDS011;6540;50.858;7.232;2022-08-05T08:53:22;56.03;;;34.40;;
12950;SDS011;6540;50.858;7.232;2022-08-05T08:55:49;62.07;;;37.50;;
12950;SDS011;6540;50.858;7.232;2022-08-05T08:58:14;59.20;;;38.27;;
12950;SDS011;6540;50.858;7.232;2022-08-05T09:00:41;61.33;;;37.73;;
12950;SDS011;6540;50.858;7.232;2022-08-05T09:03:07;61.13;;;37.70;;
12950;SDS011;6540;50.858;7.232;2022-08-05T09:05:35;55.63;;;34.33;;
12950;SDS011;6540;50.858;7.232;2022-08-05T09:08:00;46.97;;;31.87;;
12950;SDS011;6540;50.858;7.232;2022-08-05T09:10:26;40.43;;;28.57;;
12950;SDS011;6540;50.858;7.232;2022-08-05T09:12:51;42.53;;;28.83;;
12950;SDS011;6540;50.858;7.232;2022-08-05T09:15:17;44.47;;;28.50;;
12950;SDS011;6540;50.858;7.232;2022-08-05T09:17:42;43.50;;;27.70;;
12950;SDS011;6540;50.858;7.232;2022-08-05T09:20:08;42.47;;;27.90;;
12950;SDS011;6540;50.858;7.232;2022-08-05T09:25:32;41.53;;;26.27;;
12950;SDS011;6540;50.858;7.232;2022-08-05T09:28:17;33.43;;;22.77;;
12950;SDS011;6540;50.858;7.232;2022-08-05T09:33:18;32.10;;;24.00;;
12950;SDS011;6540;50.858;7.232;2022-08-05T09:38:27;24.50;;;19.80;;
12950;SDS011;6540;50.858;7.232;2022-08-05T09:40:53;22.13;;;17.70;;
12950;SDS011;6540;50.858;7.232;2022-08-05T09:43:26;21.80;;;17.37;;
12950;SDS011;6540;50.858;7.232;2022-08-05T09:45:56;18.53;;;15.60;;
12950;SDS011;6540;50.858;7.232;2022-08-05T09:48:26;14.63;;;12.63;;
12950;SDS011;6540;50.858;7.232;2022-08-05T09:50:54;13.53;;;11.60;;
12950;SDS011;6540;50.858;7.232;2022-08-05T09:53:27;15.17;;;10.67;;
12950;SDS011;6540;50.858;7.232;2022-08-05T09:56:02;13.63;;;12.23;;
12950;SDS011;6540;50.858;7.232;2022-08-05T09:58:28;12.03;;;10.83;;
12950;SDS011;6540;50.858;7.232;2022-08-05T10:00:54;10.67;;;9.63;;
12950;SDS011;6540;50.858;7.232;2022-08-05T10:03:20;11.37;;;10.20;;
12950;SDS011;6540;50.858;7.232;2022-08-05T10:05:46;10.17;;;9.17;;
12950;SDS011;6540;50.858;7.232;2022-08-05T10:08:25;9.60;;;8.70;;
12950;SDS011;6540;50.858;7.232;2022-08-05T10:10:50;9.03;;;8.07;;
12950;SDS011;6540;50.858;7.232;2022-08-05T10:13:29;8.90;;;7.47;;
12950;SDS011;6540;50.858;7.232;2022-08-05T10:15:57;8.73;;;7.47;;
12950;SDS011;6540;50.858;7.232;2022-08-05T10:18:24;8.87;;;7.60;;
12950;SDS011;6540;50.858;7.232;2022-08-05T10:25:58;8.70;;;7.40;;
12950;SDS011;6540;50.858;7.232;2022-08-05T10:28:25;9.67;;;8.20;;
12950;SDS011;6540;50.858;7.232;2022-08-05T10:30:52;10.90;;;9.67;;
12950;SDS011;6540;50.858;7.232;2022-08-05T10:33:19;9.37;;;7.40;;
12950;SDS011;6540;50.858;7.232;2022-08-05T10:35:47;9.27;;;8.23;;
12950;SDS011;6540;50.858;7.232;2022-08-05T10:38:13;8.23;;;7.40;;
12950;SDS011;6540;50.858;7.232;2022-08-05T10:46:00;7.40;;;6.60;;
12950;SDS011;6540;50.858;7.232;2022-08-05T10:48:35;6.90;;;5.67;;
12950;SDS011;6540;50.858;7.232;2022-08-05T10:51:04;7.33;;;5.53;;
12950;SDS011;6540;50.858;7.232;2022-08-05T10:56:20;6.43;;;5.33;;
12950;SDS011;6540;50.858;7.232;2022-08-05T11:01:17;4.50;;;4.10;;
12950;SDS011;6540;50.858;7.232;2022-08-05T11:04:07;5.87;;;4.40;;
12950;SDS011;6540;50.858;7.232;2022-08-05T11:06:33;4.70;;;4.30;;
12950;SDS011;6540;50.858;7.232;2022-08-05T11:11:34;4.40;;;3.40;;
12950;SDS011;6540;50.858;7.232;2022-08-05T11:14:00;3.97;;;3.30;;
12950;SDS011;6540;50.858;7.232;2022-08-05T11:16:27;3.07;;;2.73;;
12950;SDS011;6540;50.858;7.232;2022-08-05T11:21:54;4.23;;;3.30;;
12950;SDS011;6540;50.858;7.232;2022-08-05T11:24:20;2.87;;;2.67;;
12950;SDS011;6540;50.858;7.232;2022-08-05T11:26:47;2.70;;;2.50;;
12950;SDS011;6540;50.858;7.232;2022-08-05T11:32:21;3.63;;;3.07;;
12950;SDS011;6540;50.858;7.232;2022-08-05T11:34:48;2.80;;;2.57;;
12950;SDS011;6540;50.858;7.232;2022-08-05T11:37:35;3.67;;;2.70;;
12950;SDS011;6540;50.858;7.232;2022-08-05T11:40:08;2.43;;;2.23;;
12950;SDS011;6540;50.858;7.232;2022-08-05T11:42:34;2.50;;;2.30;;
12950;SDS011;6540;50.858;7.232;2022-08-05T11:45:05;3.03;;;2.67;;
12950;SDS011;6540;50.858;7.232;2022-08-05T11:47:31;3.23;;;2.67;;
12950;SDS011;6540;50.858;7.232;2022-08-05T11:49:59;4.80;;;2.90;;
12950;SDS011;6540;50.858;7.232;2022-08-05T11:52:25;2.47;;;2.27;;
12950;SDS011;6540;50.858;7.232;2022-08-05T11:54:52;6.10;;;3.03;;
12950;SDS011;6540;50.858;7.232;2022-08-05T11:57:18;4.23;;;2.57;;
12950;SDS011;6540;50.858;7.232;2022-08-05T11:59:44;4.23;;;2.33;;
12950;SDS011;6540;50.858;7.232;2022-08-05T12:02:09;2.23;;;2.10;;
12950;SDS011;6540;50.858;7.232;2022-08-05T12:04:39;2.97;;;2.33;;
12950;SDS011;6540;50.858;7.232;2022-08-05T12:07:06;3.90;;;2.27;;
12950;SDS011;6540;50.858;7.232;2022-08-05T12:09:43;2.93;;;2.00;;
12950;SDS011;6540;50.858;7.232;2022-08-05T12:12:24;2.93;;;2.03;;
12950;SDS011;6540;50.858;7.232;2022-08-05T12:14:54;2.60;;;2.40;;
12950;SDS011;6540;50.858;7.232;2022-08-05T12:17:20;4.27;;;2.30;;
12950;SDS011;6540;50.858;7.232;2022-08-05T12:19:47;3.53;;;2.20;;
12950;SDS011;6540;50.858;7.232;2022-08-05T12:22:26;3.00;;;2.20;;
12950;SDS011;6540;50.858;7.232;2022-08-05T12:24:53;5.40;;;2.30;;
12950;SDS011;6540;50.858;7.232;2022-08-05T12:29:56;2.13;;;2.00;;
12950;SDS011;6540;50.858;7.232;2022-08-05T12:32:27;2.43;;;1.97;;
12950;SDS011;6540;50.858;7.232;2022-08-05T12:34:52;4.03;;;2.20;;
12950;SDS011;6540;50.858;7.232;2022-08-05T12:37:18;5.73;;;2.37;;
12950;SDS011;6540;50.858;7.232;2022-08-05T12:39:44;3.73;;;2.30;;
12950;SDS011;6540;50.858;7.232;2022-08-05T12:42:10;4.23;;;2.70;;
12950;SDS011;6540;50.858;7.232;2022-08-05T12:44:43;3.90;;;1.97;;
12950;SDS011;6540;50.858;7.232;2022-08-05T12:47:10;3.83;;;2.10;;
12950;SDS011;6540;50.858;7.232;2022-08-05T12:49:44;2.30;;;2.00;;
12950;SDS011;6540;50.858;7.232;2022-08-05T12:52:11;3.83;;;2.20;;
12950;SDS011;6540;50.858;7.232;2022-08-05T12:54:39;2.97;;;2.37;;
12950;SDS011;6540;50.858;7.232;2022-08-05T12:57:06;5.07;;;2.40;;
12950;SDS011;6540;50.858;7.232;2022-08-05T12:59:54;4.57;;;1.57;;
12950;SDS011;6540;50.858;7.232;2022-08-05T13:02:25;1.77;;;1.40;;
12950;SDS011;6540;50.858;7.232;2022-08-05T13:04:52;3.27;;;1.87;;
12950;SDS011;6540;50.858;7.232;2022-08-05T13:07:22;2.37;;;1.70;;
12950;SDS011;6540;50.858;7.232;2022-08-05T13:09:53;2.90;;;1.50;;
12950;SDS011;6540;50.858;7.232;2022-08-05T13:12:21;2.53;;;1.77;;
12950;SDS011;6540;50.858;7.232;2022-08-05T13:14:49;2.07;;;1.60;;
12950;SDS011;6540;50.858;7.232;2022-08-05T13:22:36;2.20;;;1.93;;
12950;SDS011;6540;50.858;7.232;2022-08-05T13:25:08;3.20;;;2.20;;
12950;SDS011;6540;50.858;7.232;2022-08-05T13:27:39;2.30;;;1.70;;
12950;SDS011;6540;50.858;7.232;2022-08-05T13:30:08;4.13;;;3.07;;
12950;SDS011;6540;50.858;7.232;2022-08-05T13:32:36;6.20;;;2.00;;
12950;SDS011;6540;50.858;7.232;2022-08-05T13:35:02;3.70;;;2.37;;
12950;SDS011;6540;50.858;7.232;2022-08-05T13:37:28;4.07;;;2.00;;
12950;SDS011;6540;50.858;7.232;2022-08-05T13:39:53;3.90;;;2.10;;
12950;SDS011;6540;50.858;7.232;2022-08-05T13:42:20;2.93;;;2.23;;
12950;SDS011;6540;50.858;7.232;2022-08-05T13:44:49;5.60;;;2.07;;
12950;SDS011;6540;50.858;7.232;2022-08-05T13:47:15;2.47;;;2.00;;
12950;SDS011;6540;50.858;7.232;2022-08-05T13:49:41;3.93;;;2.40;;
12950;SDS011;6540;50.858;7.232;2022-08-05T13:52:22;3.10;;;1.80;;
12950;SDS011;6540;50.858;7.232;2022-08-05T13:54:50;2.50;;;2.13;;
12950;SDS011;6540;50.858;7.232;2022-08-05T13:57:16;5.43;;;2.40;;
12950;SDS011;6540;50.858;7.232;2022-08-05T13:59:41;4.73;;;2.10;;
12950;SDS011;6540;50.858;7.232;2022-08-05T14:02:08;3.30;;;2.30;;
12950;SDS011;6540;50.858;7.232;2022-08-05T14:04:35;3.47;;;2.20;;
12950;SDS011;6540;50.858;7.232;2022-08-05T14:07:22;4.80;;;2.13;;
12950;SDS011;6540;50.858;7.232;2022-08-05T14:09:49;4.47;;;2.77;;
12950;SDS011;6540;50.858;7.232;2022-08-05T14:12:14;3.37;;;2.63;;
12950;SDS011;6540;50.858;7.232;2022-08-05T14:14:40;3.13;;;2.73;;
12950;SDS011;6540;50.858;7.232;2022-08-05T14:17:05;5.60;;;2.97;;
12950;SDS011;6540;50.858;7.232;2022-08-05T14:19:31;3.60;;;2.67;;
12950;SDS011;6540;50.858;7.232;2022-08-05T14:21:56;3.10;;;2.17;;
12950;SDS011;6540;50.858;7.232;2022-08-05T14:24:22;4.33;;;2.30;;
12950;SDS011;6540;50.858;7.232;2022-08-05T14:26:47;3.33;;;2.60;;
12950;SDS011;6540;50.858;7.232;2022-08-05T14:29:12;3.60;;;2.53;;
12950;SDS011;6540;50.858;7.232;2022-08-05T14:31:38;2.93;;;2.60;;
12950;SDS011;6540;50.858;7.232;2022-08-05T14:34:03;3.97;;;3.40;;
12950;SDS011;6540;50.858;7.232;2022-08-05T14:36:28;3.63;;;3.00;;
12950;SDS011;6540;50.858;7.232;2022-08-05T14:38:54;3.47;;;2.83;;
12950;SDS011;6540;50.858;7.232;2022-08-05T14:41:20;3.83;;;2.63;;
12950;SDS011;6540;50.858;7.232;2022-08-05T14:43:46;3.40;;;3.10;;
12950;SDS011;6540;50.858;7.232;2022-08-05T14:46:11;4.17;;;2.67;;
12950;SDS011;6540;50.858;7.232;2022-08-05T14:48:36;3.03;;;2.70;;
12950;SDS011;6540;50.858;7.232;2022-08-05T14:51:02;3.83;;;2.73;;
12950;SDS011;6540;50.858;7.232;2022-08-05T14:53:27;4.43;;;3.13;;
12950;SDS011;6540;50.858;7.232;2022-08-05T14:55:53;4.40;;;3.23;;
12950;SDS011;6540;50.858;7.232;2022-08-05T14:58:18;9.90;;;3.43;;
12950;SDS011;6540;50.858;7.232;2022-08-05T15:00:43;3.50;;;2.80;;
12950;SDS011;6540;50.858;7.232;2022-08-05T15:03:09;4.27;;;3.17;;
12950;SDS011;6540;50.858;7.232;2022-08-05T15:05:34;2.90;;;2.70;;
12950;SDS011;6540;50.858;7.232;2022-08-05T15:08:00;3.73;;;3.00;;
12950;SDS011;6540;50.858;7.232;2022-08-05T15:10:26;4.47;;;3.23;;
12950;SDS011;6540;50.858;7.232;2022-08-05T15:12:52;3.23;;;3.03;;
12950;SDS011;6540;50.858;7.232;2022-08-05T15:15:18;6.13;;;3.10;;
12950;SDS011;6540;50.858;7.232;2022-08-05T15:17:43;5.67;;;3.03;;
12950;SDS011;6540;50.858;7.232;2022-08-05T15:20:09;3.10;;;2.83;;
12950;SDS011;6540;50.858;7.232;2022-08-05T15:22:35;2.60;;;2.40;;
12950;SDS011;6540;50.858;7.232;2022-08-05T15:25:01;3.47;;;2.67;;
12950;SDS011;6540;50.858;7.232;2022-08-05T15:27:27;3.50;;;3.20;;
12950;SDS011;6540;50.858;7.232;2022-08-05T15:29:52;5.00;;;3.10;;
12950;SDS011;6540;50.858;7.232;2022-08-05T15:32:18;3.73;;;3.27;;
12950;SDS011;6540;50.858;7.232;2022-08-05T15:34:43;6.00;;;2.90;;
12950;SDS011;6540;50.858;7.232;2022-08-05T15:37:09;5.40;;;3.10;;
12950;SDS011;6540;50.858;7.232;2022-08-05T15:39:34;3.97;;;2.83;;
12950;SDS011;6540;50.858;7.232;2022-08-05T15:41:59;4.03;;;2.77;;
12950;SDS011;6540;50.858;7.232;2022-08-05T15:44:28;3.97;;;3.30;;
12950;SDS011;6540;50.858;7.232;2022-08-05T15:46:53;4.80;;;2.80;;
12950;SDS011;6540;50.858;7.232;2022-08-05T15:49:19;4.03;;;3.00;;
12950;SDS011;6540;50.858;7.232;2022-08-05T15:51:45;2.80;;;2.60;;